sensor_id;sensor_type;location;lat;lon;timestamp;temperature;humidity
35240;DHT22;21376;50.954;4.716;2023-06-22T00:00:21;20.60;99.90
35240;DHT22;21376;50.954;4.716;2023-06-22T00:02:53;20.60;99.90
35240;DHT22;21376;50.954;4.716;2023-06-22T00:07:53;20.70;99.90
35240;DHT22;21376;50.954;4.716;2023-06-22T00:10:18;20.80;99.90
35240;DHT22;21376;50.954;4.716;2023-06-22T00:12:44;20.90;99.90
35240;DHT22;21376;50.954;4.716;2023-06-22T00:15:13;20.80;99.90
35240;DHT22;21376;50.954;4.716;2023-06-22T00:20:20;20.60;99.90
35240;DHT22;21376;50.954;4.716;2023-06-22T00:22:46;20.50;99.90
35240;DHT22;21376;50.954;4.716;2023-06-22T00:25:14;20.40;99.90
35240;DHT22;21376;50.954;4.716;2023-06-22T00:27:41;20.30;99.90
35240;DHT22;21376;50.954;4.716;2023-06-22T00:30:09;20.20;99.90
35240;DHT22;21376;50.954;4.716;2023-06-22T00:32:34;20.10;99.90
35240;DHT22;21376;50.954;4.716;2023-06-22T00:35:00;19.90;99.90
35240;DHT22;21376;50.954;4.716;2023-06-22T00:37:28;19.90;99.90
35240;DHT22;21376;50.954;4.716;2023-06-22T00:39:57;19.70;99.90
35240;DHT22;21376;50.954;4.716;2023-06-22T00:42:25;19.60;99.90
35240;DHT22;21376;50.954;4.716;2023-06-22T00:44:52;19.80;99.90
35240;DHT22;21376;50.954;4.716;2023-06-22T00:47:20;19.80;99.90
35240;DHT22;21376;50.954;4.716;2023-06-22T00:49:47;19.60;99.90
35240;DHT22;21376;50.954;4.716;2023-06-22T00:52:15;19.80;99.90
35240;DHT22;21376;50.954;4.716;2023-06-22T00:54:47;19.80;99.90
35240;DHT22;21376;50.954;4.716;2023-06-22T00:57:16;19.90;99.90
35240;DHT22;21376;50.954;4.716;2023-06-22T00:59:46;20.00;99.90
35240;DHT22;21376;50.954;4.716;2023-06-22T01:02:16;20.10;99.90
35240;DHT22;21376;50.954;4.716;2023-06-22T01:04:44;20.10;99.90
35240;DHT22;21376;50.954;4.716;2023-06-22T01:07:19;20.20;99.90
35240;DHT22;21376;50.954;4.716;2023-06-22T01:09:59;20.30;99.90
35240;DHT22;21376;50.954;4.716;2023-06-22T01:12:26;20.30;99.90
35240;DHT22;21376;50.954;4.716;2023-06-22T01:15:08;20.30;99.90
35240;DHT22;21376;50.954;4.716;2023-06-22T01:17:36;20.40;99.90
35240;DHT22;21376;50.954;4.716;2023-06-22T01:20:04;20.50;99.90
35240;DHT22;21376;50.954;4.716;2023-06-22T01:22:48;20.50;99.90
35240;DHT22;21376;50.954;4.716;2023-06-22T01:25:19;20.50;99.90
35240;DHT22;21376;50.954;4.716;2023-06-22T01:30:31;20.20;99.90
35240;DHT22;21376;50.954;4.716;2023-06-22T01:33:02;20.30;99.90
35240;DHT22;21376;50.954;4.716;2023-06-22T01:35:31;20.30;99.90
35240;DHT22;21376;50.954;4.716;2023-06-22T01:37:57;20.20;99.90
35240;DHT22;21376;50.954;4.716;2023-06-22T01:40:26;20.10;99.90
35240;DHT22;21376;50.954;4.716;2023-06-22T01:42:54;19.90;99.90
35240;DHT22;21376;50.954;4.716;2023-06-22T01:45:26;19.90;99.90
35240;DHT22;21376;50.954;4.716;2023-06-22T01:47:57;19.80;99.90
35240;DHT22;21376;50.954;4.716;2023-06-22T01:50:23;19.70;99.90
35240;DHT22;21376;50.954;4.716;2023-06-22T01:52:50;19.50;99.90
35240;DHT22;21376;50.954;4.716;2023-06-22T01:55:16;19.50;99.90
35240;DHT22;21376;50.954;4.716;2023-06-22T01:57:42;19.30;99.90
35240;DHT22;21376;50.954;4.716;2023-06-22T02:00:18;19.30;99.90
35240;DHT22;21376;50.954;4.716;2023-06-22T02:05:18;19.20;99.90
35240;DHT22;21376;50.954;4.716;2023-06-22T02:07:46;19.30;99.90
35240;DHT22;21376;50.954;4.716;2023-06-22T02:10:14;19.20;99.90
35240;DHT22;21376;50.954;4.716;2023-06-22T02:12:42;19.10;99.90
35240;DHT22;21376;50.954;4.716;2023-06-22T02:15:09;19.00;99.90
35240;DHT22;21376;50.954;4.716;2023-06-22T02:17:36;18.90;99.90
35240;DHT22;21376;50.954;4.716;2023-06-22T02:27:35;18.70;99.90
35240;DHT22;21376;50.954;4.716;2023-06-22T02:30:00;18.70;99.90
35240;DHT22;21376;50.954;4.716;2023-06-22T02:32:26;18.80;99.90
35240;DHT22;21376;50.954;4.716;2023-06-22T02:34:52;18.80;99.90
35240;DHT22;21376;50.954;4.716;2023-06-22T02:37:18;18.50;99.90
35240;DHT22;21376;50.954;4.716;2023-06-22T02:39:54;18.60;99.90
35240;DHT22;21376;50.954;4.716;2023-06-22T02:42:23;18.50;99.90
35240;DHT22;21376;50.954;4.716;2023-06-22T02:44:52;18.50;99.90
35240;DHT22;21376;50.954;4.716;2023-06-22T02:47:18;18.50;99.90
35240;DHT22;21376;50.954;4.716;2023-06-22T02:49:44;18.50;99.90
35240;DHT22;21376;50.954;4.716;2023-06-22T02:52:14;18.60;99.90
35240;DHT22;21376;50.954;4.716;2023-06-22T02:54:46;18.60;99.90
35240;DHT22;21376;50.954;4.716;2023-06-22T02:57:12;18.60;99.90
35240;DHT22;21376;50.954;4.716;2023-06-22T02:59:40;18.50;99.90
35240;DHT22;21376;50.954;4.716;2023-06-22T03:02:10;18.50;99.90
35240;DHT22;21376;50.954;4.716;2023-06-22T03:04:39;18.40;99.90
35240;DHT22;21376;50.954;4.716;2023-06-22T03:07:08;18.40;99.90
35240;DHT22;21376;50.954;4.716;2023-06-22T03:09:35;18.30;99.90
35240;DHT22;21376;50.954;4.716;2023-06-22T03:12:03;18.20;99.90
35240;DHT22;21376;50.954;4.716;2023-06-22T03:14:29;18.20;99.90
35240;DHT22;21376;50.954;4.716;2023-06-22T03:16:55;18.20;99.90
35240;DHT22;21376;50.954;4.716;2023-06-22T03:19:30;18.20;99.90
35240;DHT22;21376;50.954;4.716;2023-06-22T03:21:59;18.20;99.90
35240;DHT22;21376;50.954;4.716;2023-06-22T03:24:28;18.30;99.90
35240;DHT22;21376;50.954;4.716;2023-06-22T03:26:55;18.30;99.90
35240;DHT22;21376;50.954;4.716;2023-06-22T03:29:22;18.40;99.90
35240;DHT22;21376;50.954;4.716;2023-06-22T03:31:49;18.50;99.90
35240;DHT22;21376;50.954;4.716;2023-06-22T03:34:15;18.60;99.90
35240;DHT22;21376;50.954;4.716;2023-06-22T03:36:41;18.60;99.90
35240;DHT22;21376;50.954;4.716;2023-06-22T03:39:08;18.70;99.90
35240;DHT22;21376;50.954;4.716;2023-06-22T03:44:11;18.80;99.90
35240;DHT22;21376;50.954;4.716;2023-06-22T03:46:37;18.80;99.90
35240;DHT22;21376;50.954;4.716;2023-06-22T03:54:12;18.80;99.90
35240;DHT22;21376;50.954;4.716;2023-06-22T03:56:39;18.90;99.90
35240;DHT22;21376;50.954;4.716;2023-06-22T03:59:05;18.80;99.90
35240;DHT22;21376;50.954;4.716;2023-06-22T04:01:30;18.80;99.90
35240;DHT22;21376;50.954;4.716;2023-06-22T04:03:56;18.90;99.90
35240;DHT22;21376;50.954;4.716;2023-06-22T04:06:23;19.00;99.90
35240;DHT22;21376;50.954;4.716;2023-06-22T04:08:51;19.10;99.90
35240;DHT22;21376;50.954;4.716;2023-06-22T04:11:17;19.20;99.90
35240;DHT22;21376;50.954;4.716;2023-06-22T04:14:07;19.30;99.90
35240;DHT22;21376;50.954;4.716;2023-06-22T04:16:33;19.30;99.90
35240;DHT22;21376;50.954;4.716;2023-06-22T04:18:59;19.40;99.90
35240;DHT22;21376;50.954;4.716;2023-06-22T04:21:25;19.30;99.90
35240;DHT22;21376;50.954;4.716;2023-06-22T04:23:50;19.40;99.90
35240;DHT22;21376;50.954;4.716;2023-06-22T04:26:17;19.50;99.90
35240;DHT22;21376;50.954;4.716;2023-06-22T04:28:46;19.60;99.90
35240;DHT22;21376;50.954;4.716;2023-06-22T04:31:18;19.50;99.90
35240;DHT22;21376;50.954;4.716;2023-06-22T04:33:44;19.50;99.90
35240;DHT22;21376;50.954;4.716;2023-06-22T04:36:10;19.40;99.90
35240;DHT22;21376;50.954;4.716;2023-06-22T04:38:39;19.60;99.90
35240;DHT22;21376;50.954;4.716;2023-06-22T04:41:04;19.70;99.90
35240;DHT22;21376;50.954;4.716;2023-06-22T04:43:30;19.70;99.90
35240;DHT22;21376;50.954;4.716;2023-06-22T04:45:57;19.80;99.90
35240;DHT22;21376;50.954;4.716;2023-06-22T04:48:31;19.60;99.90
35240;DHT22;21376;50.954;4.716;2023-06-22T04:51:01;19.60;99.90
35240;DHT22;21376;50.954;4.716;2023-06-22T04:53:29;19.70;99.90
35240;DHT22;21376;50.954;4.716;2023-06-22T04:55:56;19.60;99.90
35240;DHT22;21376;50.954;4.716;2023-06-22T04:58:24;19.90;99.90
35240;DHT22;21376;50.954;4.716;2023-06-22T05:00:52;20.10;99.90
35240;DHT22;21376;50.954;4.716;2023-06-22T05:03:18;20.10;99.90
35240;DHT22;21376;50.954;4.716;2023-06-22T05:05:45;19.80;99.90
35240;DHT22;21376;50.954;4.716;2023-06-22T05:08:11;19.90;99.90
35240;DHT22;21376;50.954;4.716;2023-06-22T05:10:38;19.90;99.90
35240;DHT22;21376;50.954;4.716;2023-06-22T05:13:06;20.10;99.90
35240;DHT22;21376;50.954;4.716;2023-06-22T05:15:33;20.10;99.90
35240;DHT22;21376;50.954;4.716;2023-06-22T05:18:02;20.20;99.90
35240;DHT22;21376;50.954;4.716;2023-06-22T05:20:30;20.30;99.90
35240;DHT22;21376;50.954;4.716;2023-06-22T05:22:56;20.30;99.90
35240;DHT22;21376;50.954;4.716;2023-06-22T05:25:21;20.30;99.90
35240;DHT22;21376;50.954;4.716;2023-06-22T05:27:47;20.30;99.90
35240;DHT22;21376;50.954;4.716;2023-06-22T05:30:13;20.30;99.90
35240;DHT22;21376;50.954;4.716;2023-06-22T05:32:41;20.30;99.90
35240;DHT22;21376;50.954;4.716;2023-06-22T05:35:07;20.30;99.90
35240;DHT22;21376;50.954;4.716;2023-06-22T05:37:33;20.20;99.90
35240;DHT22;21376;50.954;4.716;2023-06-22T05:39:59;20.30;99.90
35240;DHT22;21376;50.954;4.716;2023-06-22T05:42:26;20.30;99.90
35240;DHT22;21376;50.954;4.716;2023-06-22T05:44:53;20.40;99.90
35240;DHT22;21376;50.954;4.716;2023-06-22T05:47:18;20.50;99.90
35240;DHT22;21376;50.954;4.716;2023-06-22T05:49:45;20.60;99.90
35240;DHT22;21376;50.954;4.716;2023-06-22T05:52:12;20.70;99.90
35240;DHT22;21376;50.954;4.716;2023-06-22T05:54:38;20.70;99.90
35240;DHT22;21376;50.954;4.716;2023-06-22T05:57:04;20.70;99.90
35240;DHT22;21376;50.954;4.716;2023-06-22T05:59:32;20.80;99.90
35240;DHT22;21376;50.954;4.716;2023-06-22T06:01:57;20.90;99.90
35240;DHT22;21376;50.954;4.716;2023-06-22T06:04:24;20.80;99.90
35240;DHT22;21376;50.954;4.716;2023-06-22T06:06:49;21.00;99.90
35240;DHT22;21376;50.954;4.716;2023-06-22T06:09:16;21.20;99.90
35240;DHT22;21376;50.954;4.716;2023-06-22T06:11:42;21.30;99.90
35240;DHT22;21376;50.954;4.716;2023-06-22T06:14:10;21.60;99.90
35240;DHT22;21376;50.954;4.716;2023-06-22T06:16:36;21.70;99.90
35240;DHT22;21376;50.954;4.716;2023-06-22T06:19:02;21.80;99.90
35240;DHT22;21376;50.954;4.716;2023-06-22T06:21:27;21.90;99.90
35240;DHT22;21376;50.954;4.716;2023-06-22T06:23:53;21.90;99.90
35240;DHT22;21376;50.954;4.716;2023-06-22T06:26:20;22.10;99.90
35240;DHT22;21376;50.954;4.716;2023-06-22T06:28:53;22.00;99.90
35240;DHT22;21376;50.954;4.716;2023-06-22T06:31:20;22.10;99.90
35240;DHT22;21376;50.954;4.716;2023-06-22T06:33:47;22.20;99.90
35240;DHT22;21376;50.954;4.716;2023-06-22T06:36:12;22.20;99.90
35240;DHT22;21376;50.954;4.716;2023-06-22T06:38:39;22.50;99.90
35240;DHT22;21376;50.954;4.716;2023-06-22T06:41:05;22.60;99.90
35240;DHT22;21376;50.954;4.716;2023-06-22T06:43:32;22.90;99.90
35240;DHT22;21376;50.954;4.716;2023-06-22T06:45:58;23.20;99.90
35240;DHT22;21376;50.954;4.716;2023-06-22T06:48:24;23.20;99.90
35240;DHT22;21376;50.954;4.716;2023-06-22T06:50:50;23.30;99.90
35240;DHT22;21376;50.954;4.716;2023-06-22T06:53:16;23.30;99.90
35240;DHT22;21376;50.954;4.716;2023-06-22T06:55:41;23.30;99.90
35240;DHT22;21376;50.954;4.716;2023-06-22T06:58:07;23.30;99.90
35240;DHT22;21376;50.954;4.716;2023-06-22T07:00:35;23.40;99.90
35240;DHT22;21376;50.954;4.716;2023-06-22T07:03:01;23.60;99.90
35240;DHT22;21376;50.954;4.716;2023-06-22T07:05:26;23.10;99.90
35240;DHT22;21376;50.954;4.716;2023-06-22T07:07:53;23.00;99.90
35240;DHT22;21376;50.954;4.716;2023-06-22T07:10:19;23.20;99.90
35240;DHT22;21376;50.954;4.716;2023-06-22T07:12:45;23.00;99.90
35240;DHT22;21376;50.954;4.716;2023-06-22T07:15:11;22.90;99.90
35240;DHT22;21376;50.954;4.716;2023-06-22T07:17:38;22.70;99.90
35240;DHT22;21376;50.954;4.716;2023-06-22T07:20:06;23.00;99.90
35240;DHT22;21376;50.954;4.716;2023-06-22T07:22:49;22.90;99.90
35240;DHT22;21376;50.954;4.716;2023-06-22T07:25:15;22.60;99.90
35240;DHT22;21376;50.954;4.716;2023-06-22T07:27:56;22.60;99.90
35240;DHT22;21376;50.954;4.716;2023-06-22T07:30:39;22.70;99.90
35240;DHT22;21376;50.954;4.716;2023-06-22T07:33:05;22.40;99.90
35240;DHT22;21376;50.954;4.716;2023-06-22T07:35:44;22.30;99.90
35240;DHT22;21376;50.954;4.716;2023-06-22T07:38:17;22.40;99.90
35240;DHT22;21376;50.954;4.716;2023-06-22T07:40:43;22.50;99.90
35240;DHT22;21376;50.954;4.716;2023-06-22T07:43:09;22.60;99.90
35240;DHT22;21376;50.954;4.716;2023-06-22T07:45:39;22.70;99.90
35240;DHT22;21376;50.954;4.716;2023-06-22T07:48:06;22.70;99.90
35240;DHT22;21376;50.954;4.716;2023-06-22T07:50:32;22.60;99.90
35240;DHT22;21376;50.954;4.716;2023-06-22T07:52:59;22.60;99.90
35240;DHT22;21376;50.954;4.716;2023-06-22T07:55:24;22.60;99.90
35240;DHT22;21376;50.954;4.716;2023-06-22T07:57:50;22.70;99.90
35240;DHT22;21376;50.954;4.716;2023-06-22T08:00:17;22.70;99.90
35240;DHT22;21376;50.954;4.716;2023-06-22T08:02:44;22.50;99.90
35240;DHT22;21376;50.954;4.716;2023-06-22T08:05:10;22.50;99.90
35240;DHT22;21376;50.954;4.716;2023-06-22T08:07:37;22.40;99.90
35240;DHT22;21376;50.954;4.716;2023-06-22T08:10:03;22.50;99.90
35240;DHT22;21376;50.954;4.716;2023-06-22T08:12:29;22.10;99.90
35240;DHT22;21376;50.954;4.716;2023-06-22T08:15:01;22.00;99.90
35240;DHT22;21376;50.954;4.716;2023-06-22T08:17:30;22.00;99.90
35240;DHT22;21376;50.954;4.716;2023-06-22T08:19:59;22.00;99.90
35240;DHT22;21376;50.954;4.716;2023-06-22T08:22:31;22.00;99.90
35240;DHT22;21376;50.954;4.716;2023-06-22T08:24:58;22.00;99.90
35240;DHT22;21376;50.954;4.716;2023-06-22T08:27:24;21.80;99.90
35240;DHT22;21376;50.954;4.716;2023-06-22T08:29:53;21.90;99.90
35240;DHT22;21376;50.954;4.716;2023-06-22T08:32:23;21.80;99.90
35240;DHT22;21376;50.954;4.716;2023-06-22T08:34:49;22.00;99.90
35240;DHT22;21376;50.954;4.716;2023-06-22T08:37:15;22.10;99.90
35240;DHT22;21376;50.954;4.716;2023-06-22T08:39:41;22.00;99.90
35240;DHT22;21376;50.954;4.716;2023-06-22T08:42:06;21.90;99.90
35240;DHT22;21376;50.954;4.716;2023-06-22T08:44:32;22.00;99.90
35240;DHT22;21376;50.954;4.716;2023-06-22T08:46:58;22.00;99.90
35240;DHT22;21376;50.954;4.716;2023-06-22T08:49:23;22.10;99.90
35240;DHT22;21376;50.954;4.716;2023-06-22T08:51:49;22.60;99.90
35240;DHT22;21376;50.954;4.716;2023-06-22T08:54:18;22.30;99.90
35240;DHT22;21376;50.954;4.716;2023-06-22T08:56:45;22.20;99.90
35240;DHT22;21376;50.954;4.716;2023-06-22T08:59:10;22.30;99.90
35240;DHT22;21376;50.954;4.716;2023-06-22T09:01:36;22.40;99.90
35240;DHT22;21376;50.954;4.716;2023-06-22T09:04:02;22.40;99.90
35240;DHT22;21376;50.954;4.716;2023-06-22T09:06:29;22.10;99.90
35240;DHT22;21376;50.954;4.716;2023-06-22T09:08:57;21.70;99.90
35240;DHT22;21376;50.954;4.716;2023-06-22T09:11:27;21.20;99.90
35240;DHT22;21376;50.954;4.716;2023-06-22T09:13:52;20.90;99.90
35240;DHT22;21376;50.954;4.716;2023-06-22T09:16:19;20.80;99.90
35240;DHT22;21376;50.954;4.716;2023-06-22T09:18:47;20.70;99.90
35240;DHT22;21376;50.954;4.716;2023-06-22T09:21:13;20.60;99.90
35240;DHT22;21376;50.954;4.716;2023-06-22T09:23:39;20.50;99.90
35240;DHT22;21376;50.954;4.716;2023-06-22T09:26:07;20.60;99.90
35240;DHT22;21376;50.954;4.716;2023-06-22T09:28:32;20.50;99.90
35240;DHT22;21376;50.954;4.716;2023-06-22T09:30:58;20.50;99.90
35240;DHT22;21376;50.954;4.716;2023-06-22T09:33:29;20.40;99.90
35240;DHT22;21376;50.954;4.716;2023-06-22T09:35:56;20.30;99.90
35240;DHT22;21376;50.954;4.716;2023-06-22T09:38:25;20.30;99.90
35240;DHT22;21376;50.954;4.716;2023-06-22T09:40:51;20.30;99.90
35240;DHT22;21376;50.954;4.716;2023-06-22T09:43:17;20.20;99.90
35240;DHT22;21376;50.954;4.716;2023-06-22T09:45:44;20.00;99.90
35240;DHT22;21376;50.954;4.716;2023-06-22T09:48:09;19.80;99.90
35240;DHT22;21376;50.954;4.716;2023-06-22T09:50:37;19.50;99.90
35240;DHT22;21376;50.954;4.716;2023-06-22T09:53:02;19.10;99.90
35240;DHT22;21376;50.954;4.716;2023-06-22T09:55:30;18.60;99.90
35240;DHT22;21376;50.954;4.716;2023-06-22T09:57:57;18.50;99.90
35240;DHT22;21376;50.954;4.716;2023-06-22T10:00:24;18.30;99.90
35240;DHT22;21376;50.954;4.716;2023-06-22T10:02:52;18.50;99.90
35240;DHT22;21376;50.954;4.716;2023-06-22T10:05:28;18.60;99.90
35240;DHT22;21376;50.954;4.716;2023-06-22T10:07:56;18.70;99.90
35240;DHT22;21376;50.954;4.716;2023-06-22T10:10:26;18.90;99.90
35240;DHT22;21376;50.954;4.716;2023-06-22T10:12:56;18.90;99.90
35240;DHT22;21376;50.954;4.716;2023-06-22T10:15:22;18.90;99.90
35240;DHT22;21376;50.954;4.716;2023-06-22T10:17:49;18.80;99.90
35240;DHT22;21376;50.954;4.716;2023-06-22T10:20:15;18.70;99.90
35240;DHT22;21376;50.954;4.716;2023-06-22T10:22:44;18.80;99.90
35240;DHT22;21376;50.954;4.716;2023-06-22T10:25:12;18.80;99.90
35240;DHT22;21376;50.954;4.716;2023-06-22T10:27:38;18.90;99.90
35240;DHT22;21376;50.954;4.716;2023-06-22T10:30:10;18.90;99.90
35240;DHT22;21376;50.954;4.716;2023-06-22T10:32:41;19.00;99.90
35240;DHT22;21376;50.954;4.716;2023-06-22T10:35:11;19.10;99.90
35240;DHT22;21376;50.954;4.716;2023-06-22T10:37:44;19.20;99.90
35240;DHT22;21376;50.954;4.716;2023-06-22T10:40:26;19.20;99.90
35240;DHT22;21376;50.954;4.716;2023-06-22T10:42:54;19.30;99.90
35240;DHT22;21376;50.954;4.716;2023-06-22T10:45:21;19.30;99.90
35240;DHT22;21376;50.954;4.716;2023-06-22T10:47:47;19.20;99.90
35240;DHT22;21376;50.954;4.716;2023-06-22T10:50:14;19.10;99.90
35240;DHT22;21376;50.954;4.716;2023-06-22T10:52:40;18.90;99.90
35240;DHT22;21376;50.954;4.716;2023-06-22T10:55:07;18.80;99.90
35240;DHT22;21376;50.954;4.716;2023-06-22T10:57:35;18.60;99.90
35240;DHT22;21376;50.954;4.716;2023-06-22T11:00:02;18.50;99.90
35240;DHT22;21376;50.954;4.716;2023-06-22T11:02:31;18.40;99.90
35240;DHT22;21376;50.954;4.716;2023-06-22T11:04:57;18.40;99.90
35240;DHT22;21376;50.954;4.716;2023-06-22T11:07:26;18.50;99.90
35240;DHT22;21376;50.954;4.716;2023-06-22T11:09:54;18.60;99.90
35240;DHT22;21376;50.954;4.716;2023-06-22T11:12:19;18.70;99.90
35240;DHT22;21376;50.954;4.716;2023-06-22T11:14:45;18.70;99.90
35240;DHT22;21376;50.954;4.716;2023-06-22T11:17:11;18.80;99.90
35240;DHT22;21376;50.954;4.716;2023-06-22T11:19:38;18.90;99.90
35240;DHT22;21376;50.954;4.716;2023-06-22T11:22:04;19.00;99.90
35240;DHT22;21376;50.954;4.716;2023-06-22T11:24:29;19.10;99.90
35240;DHT22;21376;50.954;4.716;2023-06-22T11:26:56;19.10;99.90
35240;DHT22;21376;50.954;4.716;2023-06-22T11:29:22;19.20;99.90
35240;DHT22;21376;50.954;4.716;2023-06-22T11:31:47;19.40;99.90
35240;DHT22;21376;50.954;4.716;2023-06-22T11:34:13;19.50;99.90
35240;DHT22;21376;50.954;4.716;2023-06-22T11:36:41;19.60;99.90
35240;DHT22;21376;50.954;4.716;2023-06-22T11:39:08;19.70;99.90
35240;DHT22;21376;50.954;4.716;2023-06-22T11:41:34;19.70;99.90
35240;DHT22;21376;50.954;4.716;2023-06-22T11:44:00;19.60;99.90
35240;DHT22;21376;50.954;4.716;2023-06-22T11:46:26;19.60;99.90
35240;DHT22;21376;50.954;4.716;2023-06-22T11:48:52;19.50;99.90
35240;DHT22;21376;50.954;4.716;2023-06-22T11:51:17;19.50;99.90
35240;DHT22;21376;50.954;4.716;2023-06-22T11:53:43;19.50;99.90
35240;DHT22;21376;50.954;4.716;2023-06-22T11:56:09;19.60;99.90
35240;DHT22;21376;50.954;4.716;2023-06-22T11:58:37;19.50;99.90
35240;DHT22;21376;50.954;4.716;2023-06-22T12:01:03;19.50;99.90
35240;DHT22;21376;50.954;4.716;2023-06-22T12:03:28;19.30;99.90
35240;DHT22;21376;50.954;4.716;2023-06-22T12:05:55;19.30;99.90
35240;DHT22;21376;50.954;4.716;2023-06-22T12:08:21;19.40;99.90
35240;DHT22;21376;50.954;4.716;2023-06-22T12:10:49;19.30;99.90
35240;DHT22;21376;50.954;4.716;2023-06-22T12:13:15;19.40;99.90
35240;DHT22;21376;50.954;4.716;2023-06-22T12:15:41;19.50;99.90
35240;DHT22;21376;50.954;4.716;2023-06-22T12:18:10;19.50;99.90
35240;DHT22;21376;50.954;4.716;2023-06-22T12:20:36;19.50;99.90
35240;DHT22;21376;50.954;4.716;2023-06-22T12:23:05;19.30;99.90
35240;DHT22;21376;50.954;4.716;2023-06-22T12:25:31;19.30;99.90
35240;DHT22;21376;50.954;4.716;2023-06-22T12:28:00;19.30;99.90
35240;DHT22;21376;50.954;4.716;2023-06-22T12:30:25;19.10;99.90
35240;DHT22;21376;50.954;4.716;2023-06-22T12:32:53;18.90;99.90
35240;DHT22;21376;50.954;4.716;2023-06-22T12:35:19;19.00;99.90
35240;DHT22;21376;50.954;4.716;2023-06-22T12:37:47;18.90;99.90
35240;DHT22;21376;50.954;4.716;2023-06-22T12:40:13;18.80;99.90
35240;DHT22;21376;50.954;4.716;2023-06-22T12:42:39;18.80;99.90
35240;DHT22;21376;50.954;4.716;2023-06-22T12:45:06;18.60;99.90
35240;DHT22;21376;50.954;4.716;2023-06-22T12:47:31;18.60;99.90
35240;DHT22;21376;50.954;4.716;2023-06-22T12:50:03;18.80;99.90
35240;DHT22;21376;50.954;4.716;2023-06-22T12:52:30;18.90;99.90
35240;DHT22;21376;50.954;4.716;2023-06-22T12:55:00;18.90;99.90
35240;DHT22;21376;50.954;4.716;2023-06-22T12:57:26;18.90;99.90
35240;DHT22;21376;50.954;4.716;2023-06-22T12:59:52;18.90;99.90
35240;DHT22;21376;50.954;4.716;2023-06-22T13:02:17;18.90;99.90
35240;DHT22;21376;50.954;4.716;2023-06-22T13:04:45;18.90;99.90
35240;DHT22;21376;50.954;4.716;2023-06-22T13:07:12;19.00;99.90
35240;DHT22;21376;50.954;4.716;2023-06-22T13:09:39;19.00;99.90
35240;DHT22;21376;50.954;4.716;2023-06-22T13:12:04;18.90;99.90
35240;DHT22;21376;50.954;4.716;2023-06-22T13:14:30;19.00;99.90
35240;DHT22;21376;50.954;4.716;2023-06-22T13:17:05;19.10;99.90
35240;DHT22;21376;50.954;4.716;2023-06-22T13:19:31;19.10;99.90
35240;DHT22;21376;50.954;4.716;2023-06-22T13:21:59;19.10;99.90
35240;DHT22;21376;50.954;4.716;2023-06-22T13:24:27;19.20;99.90
35240;DHT22;21376;50.954;4.716;2023-06-22T13:26:55;19.20;99.90
35240;DHT22;21376;50.954;4.716;2023-06-22T13:29:22;19.20;99.90
35240;DHT22;21376;50.954;4.716;2023-06-22T13:31:51;19.30;99.90
35240;DHT22;21376;50.954;4.716;2023-06-22T13:34:19;19.20;99.90
35240;DHT22;21376;50.954;4.716;2023-06-22T13:36:45;19.20;99.90
35240;DHT22;21376;50.954;4.716;2023-06-22T13:39:12;19.30;99.90
35240;DHT22;21376;50.954;4.716;2023-06-22T13:41:38;19.20;99.90
35240;DHT22;21376;50.954;4.716;2023-06-22T13:46:33;19.20;99.90
35240;DHT22;21376;50.954;4.716;2023-06-22T13:49:00;19.10;99.90
35240;DHT22;21376;50.954;4.716;2023-06-22T13:51:25;19.10;99.90
35240;DHT22;21376;50.954;4.716;2023-06-22T13:53:51;19.20;99.90
35240;DHT22;21376;50.954;4.716;2023-06-22T13:56:17;19.20;99.90
35240;DHT22;21376;50.954;4.716;2023-06-22T13:58:43;19.20;99.90
35240;DHT22;21376;50.954;4.716;2023-06-22T14:01:09;19.30;99.90
35240;DHT22;21376;50.954;4.716;2023-06-22T14:06:03;19.00;99.90
35240;DHT22;21376;50.954;4.716;2023-06-22T14:08:29;19.10;99.90
35240;DHT22;21376;50.954;4.716;2023-06-22T14:10:55;19.10;99.90
35240;DHT22;21376;50.954;4.716;2023-06-22T14:13:20;19.10;99.90
35240;DHT22;21376;50.954;4.716;2023-06-22T14:15:46;19.00;99.90
35240;DHT22;21376;50.954;4.716;2023-06-22T14:20:43;18.80;99.90
35240;DHT22;21376;50.954;4.716;2023-06-22T14:23:08;18.90;99.90
35240;DHT22;21376;50.954;4.716;2023-06-22T14:25:34;19.00;99.90
35240;DHT22;21376;50.954;4.716;2023-06-22T14:28:01;19.10;99.90
35240;DHT22;21376;50.954;4.716;2023-06-22T14:30:28;19.10;99.90
35240;DHT22;21376;50.954;4.716;2023-06-22T14:32:55;19.20;99.90
35240;DHT22;21376;50.954;4.716;2023-06-22T14:35:22;19.10;99.90
35240;DHT22;21376;50.954;4.716;2023-06-22T14:37:49;19.00;99.90
35240;DHT22;21376;50.954;4.716;2023-06-22T14:42:47;19.00;99.90
35240;DHT22;21376;50.954;4.716;2023-06-22T14:45:12;19.00;99.90
35240;DHT22;21376;50.954;4.716;2023-06-22T14:47:40;19.00;99.90
35240;DHT22;21376;50.954;4.716;2023-06-22T14:50:06;19.00;99.90
35240;DHT22;21376;50.954;4.716;2023-06-22T14:52:32;19.00;99.90
35240;DHT22;21376;50.954;4.716;2023-06-22T14:54:58;19.10;99.90
35240;DHT22;21376;50.954;4.716;2023-06-22T14:57:26;19.30;99.90
35240;DHT22;21376;50.954;4.716;2023-06-22T14:59:52;19.20;99.90
35240;DHT22;21376;50.954;4.716;2023-06-22T15:02:18;19.20;99.90
35240;DHT22;21376;50.954;4.716;2023-06-22T15:04:45;19.20;99.90
35240;DHT22;21376;50.954;4.716;2023-06-22T15:07:11;19.30;99.90
35240;DHT22;21376;50.954;4.716;2023-06-22T15:09:39;19.40;99.90
35240;DHT22;21376;50.954;4.716;2023-06-22T15:12:08;19.50;99.90
35240;DHT22;21376;50.954;4.716;2023-06-22T15:14:43;19.50;99.90
35240;DHT22;21376;50.954;4.716;2023-06-22T15:17:11;19.40;99.90
35240;DHT22;21376;50.954;4.716;2023-06-22T15:19:39;19.60;99.90
35240;DHT22;21376;50.954;4.716;2023-06-22T15:22:07;19.50;99.90
35240;DHT22;21376;50.954;4.716;2023-06-22T15:24:33;19.60;99.90
35240;DHT22;21376;50.954;4.716;2023-06-22T15:26:59;19.60;99.90
35240;DHT22;21376;50.954;4.716;2023-06-22T15:29:26;19.60;99.90
35240;DHT22;21376;50.954;4.716;2023-06-22T15:31:52;19.50;99.90
35240;DHT22;21376;50.954;4.716;2023-06-22T15:34:18;19.80;99.90
35240;DHT22;21376;50.954;4.716;2023-06-22T15:36:44;19.60;99.90
35240;DHT22;21376;50.954;4.716;2023-06-22T15:39:10;19.70;99.90
35240;DHT22;21376;50.954;4.716;2023-06-22T15:41:39;19.70;99.90
35240;DHT22;21376;50.954;4.716;2023-06-22T15:44:07;19.80;99.90
35240;DHT22;21376;50.954;4.716;2023-06-22T15:46:33;20.00;99.90
35240;DHT22;21376;50.954;4.716;2023-06-22T15:49:02;20.00;99.90
35240;DHT22;21376;50.954;4.716;2023-06-22T15:51:31;20.00;99.90
35240;DHT22;21376;50.954;4.716;2023-06-22T15:53:56;19.90;99.90
35240;DHT22;21376;50.954;4.716;2023-06-22T15:56:22;19.90;99.90
35240;DHT22;21376;50.954;4.716;2023-06-22T15:59:13;20.00;99.90
35240;DHT22;21376;50.954;4.716;2023-06-22T16:01:48;19.90;99.90
35240;DHT22;21376;50.954;4.716;2023-06-22T16:04:15;19.70;99.90
35240;DHT22;21376;50.954;4.716;2023-06-22T16:06:41;19.80;99.90